Time;durP1;ratioP1;P1;durP2;ratioP2;P2;SDS_P1;SDS_P2;PMS_P1;PMS_P2;Temp;Humidity;BMP_temperature;BMP_pressure;BME280_temperature;BME280_humidity;BME280_pressure;Samples;Min_cycle;Max_cycle;Signal;HPM_P1;HPM_P2
2023/06/22 00:00:39;;;;;;;5.10;3.42;;;;;;;5.71;66.60;96236.81;6293294;28;20041;-71
2023/06/22 00:03:42;;;;;;;6.32;3.88;;;;;;;5.68;66.98;96237.00;6293069;28;20033;-71
2023/06/22 00:06:46;;;;;;;;;;;;;;;5.62;66.95;96238.19;6293113;28;20040;-72
2023/06/22 00:09:53;;;;;;;5.32;3.75;;;;;;;5.58;66.85;96230.63;6292917;28;19917;-72
2023/06/22 00:13:01;;;;;;;5.78;3.65;;;;;;;5.55;67.27;96236.84;6293322;28;20037;-71
2023/06/22 00:16:08;;;;;;;6.22;3.90;;;;;;;5.61;67.45;96246.09;6292708;28;20046;-71
2023/06/22 00:19:19;;;;;;;5.63;3.97;;;;;;;5.61;67.51;96240.88;6267437;28;20047;-71
2023/06/22 00:22:28;;;;;;;6.28;4.00;;;;;;;5.65;67.54;96239.78;6268222;28;20045;-71
2023/06/22 00:25:40;;;;;;;5.68;4.10;;;;;;;5.78;67.76;96256.44;6267805;28;20037;-71
2023/06/22 00:28:44;;;;;;;7.80;3.53;;;;;;;5.85;67.76;96249.94;6267345;28;20056;-71
2023/06/22 00:31:45;;;;;;;;;;;;;;;5.98;67.69;96252.75;6261040;28;20144;-71
2023/06/22 00:34:51;;;;;;;4.50;3.45;;;;;;;6.23;66.42;96252.22;6291971;28;19920;-71
2023/06/22 00:38:03;;;;;;;6.35;3.45;;;;;;;6.58;66.03;96257.16;6295455;28;20557;-71
2023/06/22 00:41:05;;;;;;;5.53;3.33;;;;;;;6.90;65.23;96250.00;6296297;28;20056;-71
2023/06/22 00:44:08;;;;;;;5.80;3.80;;;;;;;7.19;64.33;96250.88;6284631;28;20047;-71
2023/06/22 00:47:17;;;;;;;7.40;5.30;;;;;;;7.48;64.16;96256.06;6270717;28;20057;-71
2023/06/22 00:50:25;;;;;;;5.72;3.83;;;;;;;7.69;63.60;96255.66;6295311;28;20056;-71
2023/06/22 00:53:34;;;;;;;6.38;4.03;;;;;;;7.82;63.30;96260.00;6295596;28;20434;-72
2023/06/22 00:56:43;;;;;;;8.55;4.72;;;;;;;7.89;62.83;96255.22;6277902;28;20045;-71
2023/06/22 00:59:50;;;;;;;5.53;4.38;;;;;;;7.81;62.95;96250.50;6296725;28;20045;-72
2023/06/22 01:02:53;;;;;;;4.60;3.53;;;;;;;7.79;62.88;96248.91;6296725;28;20040;-72
2023/06/22 01:06:08;;;;;;;5.63;3.70;;;;;;;7.77;63.31;96249.00;6295747;28;20052;-72
2023/06/22 01:09:26;;;;;;;5.93;4.35;;;;;;;7.75;63.23;96257.88;6295328;28;20048;-70
2023/06/22 01:12:32;;;;;;;5.93;3.65;;;;;;;7.76;63.47;96256.97;6277632;28;20049;-72
2023/06/22 01:16:16;;;;;;;5.35;3.47;;;;;;;7.90;63.78;96267.41;6296332;28;20036;-72
2023/06/22 01:19:29;;;;;;;4.40;3.73;;;;;;;8.06;63.32;96268.06;6296207;28;20049;-71
2023/06/22 01:22:48;;;;;;;6.00;3.78;;;;;;;8.33;62.91;96275.09;6291388;28;20463;-72
2023/06/22 01:26:38;;;;;;;6.50;4.00;;;;;;;8.74;62.24;96268.91;6294854;28;20044;-71
2023/06/22 01:29:43;;;;;;;5.30;4.22;;;;;;;9.13;61.29;96275.88;6266981;28;20125;-71
2023/06/22 01:32:54;;;;;;;5.45;3.83;;;;;;;9.43;60.37;96277.31;6295955;28;20040;-71
2023/06/22 01:35:55;;;;;;;5.93;4.03;;;;;;;9.66;60.03;96278.34;6294881;28;20056;-72
2023/06/22 01:38:58;;;;;;;4.82;3.72;;;;;;;9.85;59.50;96278.72;6293952;28;20426;-71
2023/06/22 01:42:02;;;;;;;4.70;3.83;;;;;;;10.03;59.22;96280.97;6295562;28;20041;-72
2023/06/22 01:45:05;;;;;;;4.80;3.78;;;;;;;10.16;58.86;96276.47;6290143;28;20032;-71
2023/06/22 01:48:10;;;;;;;6.50;4.13;;;;;;;10.37;58.31;96283.81;6251276;28;20052;-71
2023/06/22 01:51:14;;;;;;;6.00;3.45;;;;;;;10.45;58.13;96284.91;6270160;28;20051;-72
2023/06/22 01:54:20;;;;;;;5.38;3.72;;;;;;;10.41;58.14;96290.50;6270217;28;20507;-71
2023/06/22 01:57:21;;;;;;;7.15;3.97;;;;;;;10.21;58.47;96290.13;6270247;28;20061;-72
2023/06/22 02:00:28;;;;;;;6.93;3.60;;;;;;;9.98;58.68;96293.59;6269415;28;20129;-72
2023/06/22 02:03:37;;;;;;;7.70;3.72;;;;;;;9.80;58.92;96301.00;6270031;28;20057;-72
2023/06/22 02:06:45;;;;;;;8.52;4.28;;;;;;;9.72;59.16;96295.44;6269513;28;20052;-71
2023/06/22 02:09:54;;;;;;;7.68;3.95;;;;;;;9.61;59.51;96297.03;6269997;28;20207;-72
2023/06/22 02:13:00;;;;;;;6.75;4.30;;;;;;;9.61;59.04;96297.03;6270226;28;20407;-73
2023/06/22 02:16:04;;;;;;;8.10;3.75;;;;;;;9.62;59.14;96295.25;6268559;28;20041;-71
2023/06/22 02:19:06;;;;;;;7.93;4.05;;;;;;;9.69;58.87;96299.13;6269439;28;20060;-71
2023/06/22 02:22:07;;;;;;;5.97;3.70;;;;;;;9.81;58.28;96297.41;6269970;28;20052;-71
2023/06/22 02:25:12;;;;;;;5.38;3.92;;;;;;;9.81;58.02;96303.50;6269033;28;20123;-71
2023/06/22 02:28:16;;;;;;;6.90;4.63;;;;;;;9.82;57.96;96299.97;6269605;28;20059;-71
2023/06/22 02:31:18;;;;;;;6.53;4.00;;;;;;;9.77;57.88;96302.06;6284094;28;20037;-71
2023/06/22 02:34:22;;;;;;;6.05;3.67;;;;;;;9.81;58.16;96302.69;6293801;28;20062;-71
2023/06/22 02:37:29;;;;;;;4.80;3.95;;;;;;;9.89;57.95;96293.31;6294077;28;20139;-72
2023/06/22 02:40:31;;;;;;;5.03;3.63;;;;;;;10.18;57.57;96308.75;6294589;28;20106;-71
2023/06/22 02:43:38;;;;;;;5.50;4.03;;;;;;;10.48;56.74;96312.78;6294563;28;20406;-72
2023/06/22 02:46:40;;;;;;;4.88;3.30;;;;;;;10.83;55.73;96311.97;6268126;28;20500;-71
2023/06/22 02:49:44;;;;;;;7.40;3.95;;;;;;;11.12;54.89;96310.59;6292827;28;20413;-72
2023/06/22 02:52:50;;;;;;;5.30;4.05;;;;;;;11.44;53.67;96309.94;6293734;28;20063;-70
2023/06/22 02:55:54;;;;;;;4.07;2.97;;;;;;;11.72;53.08;96315.69;6292795;28;20048;-71
2023/06/22 02:59:01;;;;;;;7.78;4.68;;;;;;;12.02;52.11;96315.94;6293673;28;20044;-72
2023/06/22 03:02:02;;;;;;;6.97;4.20;;;;;;;12.34;51.13;96317.78;6292892;28;20048;-73
2023/06/22 03:05:06;;;;;;;8.23;4.00;;;;;;;12.75;50.40;96329.41;6292968;28;20048;-71
2023/06/22 03:08:10;;;;;;;12.00;4.68;;;;;;;13.21;49.46;96333.50;6293247;28;20640;-71
2023/06/22 03:11:18;;;;;;;10.75;5.20;;;;;;;13.63;48.14;96338.81;6293491;28;20056;-71
2023/06/22 03:14:22;;;;;;;9.32;4.80;;;;;;;13.78;47.28;96337.47;6293262;28;20044;-72
2023/06/22 03:17:29;;;;;;;12.40;5.63;;;;;;;13.83;47.18;96337.09;6292869;28;20056;-72
2023/06/22 03:20:39;;;;;;;15.80;5.18;;;;;;;13.80;47.26;96330.25;6275175;28;20041;-73
2023/06/22 03:23:45;;;;;;;8.38;4.63;;;;;;;13.71;47.25;96341.63;6268627;28;20037;-71
2023/06/22 03:26:49;;;;;;;6.57;4.05;;;;;;;13.45;47.65;96335.94;6268398;28;20045;-71
2023/06/22 03:29:53;;;;;;;7.80;3.63;;;;;;;13.22;48.33;96345.78;6268220;28;20037;-72
2023/06/22 03:32:59;;;;;;;5.30;3.83;;;;;;;13.13;48.10;96349.16;6267781;28;20045;-71
2023/06/22 03:36:03;;;;;;;5.43;3.63;;;;;;;13.04;48.24;96348.97;6268046;28;20455;-72
2023/06/22 03:39:07;;;;;;;6.47;3.15;;;;;;;13.02;48.10;96342.13;6281810;28;20186;-72
2023/06/22 03:42:14;;;;;;;5.03;3.03;;;;;;;12.98;47.61;96333.63;6292163;28;20072;-72
2023/06/22 03:45:22;;;;;;;5.00;3.28;;;;;;;13.09;47.09;96350.41;6293150;28;20041;-73
2023/06/22 03:48:26;;;;;;;4.63;2.88;;;;;;;13.08;46.68;96348.69;6292578;28;20044;-72
2023/06/22 03:51:31;;;;;;;4.53;2.40;;;;;;;13.00;46.27;96344.91;6292039;28;20059;-72
2023/06/22 03:54:35;;;;;;;4.57;2.72;;;;;;;12.97;46.41;96341.69;6291395;28;20051;-71
2023/06/22 03:57:42;;;;;;;6.75;3.47;;;;;;;13.09;46.21;96347.75;6292874;28;20565;-71
2023/06/22 04:00:50;;;;;;;11.32;4.93;;;;;;;13.09;45.81;96339.84;6292847;28;20045;-72
2023/06/22 04:03:52;;;;;;;9.27;3.30;;;;;;;13.21;45.23;96349.34;6291754;28;20040;-72
2023/06/22 04:06:56;;;;;;;6.13;2.63;;;;;;;13.32;44.81;96351.13;6293006;28;20071;-72
2023/06/22 04:10:04;;;;;;;5.50;2.70;;;;;;;13.61;43.97;96346.84;6293017;28;20044;-71
2023/06/22 04:13:08;;;;;;;3.30;2.38;;;;;;;14.24;42.23;96337.91;6294401;28;20052;-72
2023/06/22 04:16:15;;;;;;;6.95;2.83;;;;;;;15.06;40.56;96345.59;6297557;28;20040;-72
2023/06/22 04:19:19;;;;;;;4.75;2.05;;;;;;;15.95;39.08;96347.94;6297258;28;20070;-71
2023/06/22 04:22:23;;;;;;;;;;;;;;;16.73;38.35;96347.50;6287867;28;20045;-72
2023/06/22 04:25:30;;;;;;;3.45;1.77;;;;;;;16.77;36.88;96343.63;6272748;28;20018;-72
2023/06/22 04:28:37;;;;;;;5.80;2.28;;;;;;;16.91;36.87;96345.75;6272917;28;20064;-72
2023/06/22 04:31:44;;;;;;;3.42;1.83;;;;;;;16.93;36.29;96338.47;6271907;28;20049;-72
2023/06/22 04:34:47;;;;;;;5.80;2.17;;;;;;;16.94;35.71;96345.44;6270900;28;20060;-73
2023/06/22 04:37:49;;;;;;;;;;;;;;;17.65;35.93;96349.00;6271251;28;20075;-72
2023/06/22 04:40:56;;;;;;;3.40;1.92;;;;;;;18.18;34.40;96348.81;6254960;28;19998;-72
2023/06/22 04:44:05;;;;;;;2.70;1.77;;;;;;;17.94;33.83;96354.84;6272114;28;20075;-72
2023/06/22 04:47:08;;;;;;;2.75;1.85;;;;;;;17.33;34.61;96352.25;6268266;28;20226;-72
2023/06/22 04:50:12;;;;;;;4.05;1.90;;;;;;;16.53;34.54;96355.63;6269945;28;20164;-72
2023/06/22 04:53:19;;;;;;;2.70;2.00;;;;;;;15.78;35.91;96356.66;6272205;28;20036;-72
2023/06/22 04:56:27;;;;;;;2.00;1.50;;;;;;;15.61;36.65;96358.22;6270483;28;20037;-72
2023/06/22 04:59:31;;;;;;;6.30;1.92;;;;;;;15.88;35.74;96362.75;6270879;28;20426;-72
2023/06/22 05:02:35;;;;;;;2.53;1.63;;;;;;;16.11;35.41;96364.09;6273019;28;20502;-71
2023/06/22 05:05:39;;;;;;;2.65;1.52;;;;;;;17.03;33.85;96355.16;6296360;28;20044;-73
2023/06/22 05:08:43;;;;;;;3.80;1.58;;;;;;;19.21;31.16;96364.59;6278613;28;20036;-71
2023/06/22 05:11:47;;;;;;;2.45;2.00;;;;;;;22.21;27.67;96374.25;6296022;28;20041;-72
2023/06/22 05:14:48;;;;;;;4.30;1.65;;;;;;;26.74;23.01;96374.94;6295978;28;20037;-72
2023/06/22 05:17:50;;;;;;;1.95;1.20;;;;;;;27.62;20.55;96377.81;6295857;28;20094;-73
2023/06/22 05:20:54;;;;;;;2.58;1.17;;;;;;;26.46;21.17;96373.34;6295341;28;20036;-72
2023/06/22 05:23:59;;;;;;;3.03;1.13;;;;;;;24.49;22.12;96374.50;6272745;28;20037;-71
2023/06/22 05:27:06;;;;;;;1.88;1.60;;;;;;;22.54;23.94;96381.91;6270162;28;20041;-72
2023/06/22 05:30:11;;;;;;;1.55;1.20;;;;;;;20.81;25.90;96374.50;6270866;28;20121;-72
2023/06/22 05:33:18;;;;;;;1.58;1.20;;;;;;;20.29;26.99;96382.19;6270902;28;20470;-73
2023/06/22 05:36:25;;;;;;;2.70;1.60;;;;;;;21.41;25.74;96389.00;6270551;28;20499;-72
2023/06/22 05:39:33;;;;;;;3.38;1.63;;;;;;;22.67;23.98;96394.66;6295547;28;20052;-72
2023/06/22 05:42:39;;;;;;;2.88;1.20;;;;;;;26.72;20.30;96391.34;6294679;28;20047;-72
2023/06/22 05:45:49;;;;;;;3.35;1.40;;;;;;;28.89;18.44;96399.16;6278038;28;20049;-73
2023/06/22 05:48:56;;;;;;;1.20;1.00;;;;;;;27.61;18.48;96408.59;6279090;28;20041;-73
2023/06/22 05:52:04;;;;;;;1.92;1.20;;;;;;;26.93;19.67;96405.63;6270541;28;20391;-72
2023/06/22 05:55:05;;;;;;;1.60;1.30;;;;;;;27.31;19.00;96420.00;6284205;28;20059;-72
2023/06/22 05:58:13;;;;;;;2.95;1.27;;;;;;;26.75;19.59;96415.25;6295033;28;20078;-73
2023/06/22 06:01:16;;;;;;;;;;;;;;;26.79;19.07;96396.75;6295013;28;20041;-72
2023/06/22 06:04:22;;;;;;;1.40;1.23;;;;;;;24.28;21.09;96385.28;6295223;28;19920;-72
2023/06/22 06:07:30;;;;;;;1.23;1.10;;;;;;;25.22;20.05;96398.19;6295043;28;20040;-72
2023/06/22 06:10:35;;;;;;;3.85;1.50;;;;;;;27.30;18.65;96418.34;6294228;28;20048;-73
2023/06/22 06:13:36;;;;;;;1.58;1.27;;;;;;;26.95;18.82;96403.50;6294667;28;20040;-72
2023/06/22 06:16:43;;;;;;;2.17;1.23;;;;;;;24.90;20.69;96408.59;6294650;28;20040;-72
2023/06/22 06:19:49;;;;;;;2.30;1.33;;;;;;;23.39;21.84;96423.38;6294322;28;20040;-73
2023/06/22 06:22:53;;;;;;;1.30;1.08;;;;;;;23.58;21.62;96401.28;6273017;28;20041;-72
2023/06/22 06:26:01;;;;;;;1.88;1.52;;;;;;;27.72;18.46;96407.91;6269370;28;20045;-73
2023/06/22 06:29:08;;;;;;;2.58;1.30;;;;;;;27.67;18.01;96418.53;6270126;28;20045;-73
2023/06/22 06:32:10;;;;;;;2.05;1.35;;;;;;;26.58;18.73;96414.00;6269124;28;20131;-73
2023/06/22 06:35:17;;;;;;;1.45;1.35;;;;;;;25.35;20.00;96409.00;6277716;28;20461;-72
2023/06/22 06:38:19;;;;;;;2.30;1.63;;;;;;;25.24;19.93;96409.59;6294020;28;20127;-74
2023/06/22 06:41:21;;;;;;;1.20;1.08;;;;;;;27.66;18.19;96411.50;6294245;28;20049;-73
2023/06/22 06:44:22;;;;;;;1.67;1.10;;;;;;;29.58;16.67;96413.25;6293054;28;20083;-72
2023/06/22 06:47:26;;;;;;;1.88;1.38;;;;;;;29.23;17.03;96405.00;6260121;28;20064;-72
2023/06/22 06:50:30;;;;;;;5.78;1.60;;;;;;;28.03;18.24;96408.94;6266113;28;20422;-73
2023/06/22 06:53:34;;;;;;;2.70;1.45;;;;;;;27.55;18.14;96409.47;6268835;28;20132;-72
2023/06/22 06:56:36;;;;;;;1.90;1.38;;;;;;;27.02;18.40;96407.84;6265143;28;20048;-72
2023/06/22 06:59:42;;;;;;;1.77;1.67;;;;;;;26.85;18.82;96404.81;6267498;28;20167;-72
2023/06/22 07:02:49;;;;;;;2.45;1.67;;;;;;;26.43;19.22;96406.13;6280769;28;20044;-72
2023/06/22 07:05:51;;;;;;;2.05;1.70;;;;;;;25.83;19.55;96405.38;6292752;28;20089;-71
2023/06/22 07:08:52;;;;;;;3.53;1.80;;;;;;;28.32;18.12;96414.72;6292694;28;20541;-73
2023/06/22 07:11:56;;;;;;;2.15;1.27;;;;;;;30.61;16.41;96419.34;6292814;28;20507;-73
2023/06/22 07:15:11;;;;;;;1.38;1.20;;;;;;;33.36;14.45;96425.22;6293400;28;20048;-73
2023/06/22 07:18:15;;;;;;;1.88;1.48;;;;;;;30.95;15.13;96414.16;6292588;28;20407;-72
2023/06/22 07:21:17;;;;;;;2.17;1.58;;;;;;;27.39;18.11;96415.41;6286070;28;20041;-71
2023/06/22 07:24:27;;;;;;;2.17;1.55;;;;;;;25.48;19.97;96409.03;6268820;28;20045;-73
2023/06/22 07:27:35;;;;;;;2.53;1.73;;;;;;;24.42;20.81;96408.53;6268243;28;20051;-73
2023/06/22 07:30:39;;;;;;;1.95;1.63;;;;;;;23.71;21.50;96417.53;6267755;28;20057;-73
2023/06/22 07:33:46;;;;;;;1.90;1.55;;;;;;;23.77;21.41;96417.78;6268248;28;20130;-71
2023/06/22 07:36:50;;;;;;;1.90;1.42;;;;;;;23.25;21.98;96420.56;6273101;28;20499;-76
2023/06/22 07:39:58;;;;;;;3.28;1.85;;;;;;;23.35;21.87;96416.72;6246077;28;20521;-73
2023/06/22 07:43:07;;;;;;;2.53;1.80;;;;;;;23.92;21.49;96416.69;6260880;28;20049;-73
2023/06/22 07:46:11;;;;;;;2.63;1.80;;;;;;;24.20;21.27;96416.69;6249333;28;20501;-72
2023/06/22 07:49:19;;;;;;;3.03;1.83;;;;;;;24.14;21.61;96430.88;6269370;28;20040;-77
2023/06/22 07:52:27;;;;;;;3.67;1.73;;;;;;;24.36;21.02;96425.47;6273001;28;20041;-75
2023/06/22 07:55:31;;;;;;;2.60;1.90;;;;;;;24.25;20.77;96428.69;6251772;28;20044;-74
2023/06/22 07:58:37;;;;;;;2.35;1.77;;;;;;;23.94;21.15;96416.47;6270666;28;20045;-70
2023/06/22 08:01:42;;;;;;;1.70;1.50;;;;;;;24.08;21.27;96422.78;6264859;28;20486;-66
2023/06/22 08:04:43;;;;;;;4.55;1.65;;;;;;;24.12;21.16;96424.91;6270719;28;20183;-66
2023/06/22 08:07:50;;;;;;;1.70;1.45;;;;;;;23.66;21.97;96425.28;6255113;28;20040;-67
2023/06/22 08:10:51;;;;;;;2.33;1.73;;;;;;;23.08;22.35;96427.19;6271897;28;20064;-66
2023/06/22 08:13:57;;;;;;;2.33;1.88;;;;;;;23.28;22.54;96428.22;6271575;28;20041;-67
2023/06/22 08:16:59;;;;;;;1.70;1.30;;;;;;;27.41;18.83;96437.63;6271944;28;20426;-67
2023/06/22 08:20:00;;;;;;;2.95;1.35;;;;;;;32.31;15.20;96452.34;6245118;28;20184;-67
2023/06/22 08:23:06;;;;;;;2.03;1.40;;;;;;;36.53;12.75;96451.69;6267650;28;20182;-67
2023/06/22 08:26:13;;;;;;;1.48;1.27;;;;;;;38.84;11.30;96443.03;6271033;28;20032;-68
2023/06/22 08:29:16;;;;;;;1.30;1.08;;;;;;;38.82;10.81;96448.84;6294827;28;20413;-67
2023/06/22 08:32:18;;;;;;;2.55;1.30;;;;;;;38.25;11.28;96442.22;6256956;28;20044;-66
2023/06/22 08:35:24;;;;;;;1.70;1.00;;;;;;;38.52;10.39;96438.97;6268486;28;20048;-65
2023/06/22 08:38:26;;;;;;;1.88;1.15;;;;;;;39.11;10.43;96438.94;6271510;28;20524;-64
2023/06/22 08:41:30;;;;;;;2.03;1.15;;;;;;;37.57;10.99;96429.19;6267013;28;20041;-65
2023/06/22 08:44:35;;;;;;;1.35;1.25;;;;;;;35.83;12.26;96437.63;6268493;28;20526;-63
2023/06/22 08:47:40;;;;;;;1.00;0.93;;;;;;;34.47;12.62;96423.84;6272139;28;20411;-65
2023/06/22 08:50:45;;;;;;;1.90;1.33;;;;;;;33.36;13.77;96430.69;6260455;28;20060;-65
2023/06/22 08:53:48;;;;;;;1.60;1.23;;;;;;;31.90;14.38;96424.41;6270687;28;20123;-65
2023/06/22 08:56:52;;;;;;;1.73;1.60;;;;;;;30.18;15.45;96428.66;6253142;28;20131;-66
2023/06/22 09:00:00;;;;;;;2.42;1.70;;;;;;;28.43;16.94;96422.16;6266985;28;20052;-65
2023/06/22 09:03:04;;;;;;;1.52;1.35;;;;;;;28.04;17.36;96418.72;6291397;28;20045;-65
2023/06/22 09:06:13;;;;;;;1.77;1.63;;;;;;;29.44;16.24;96423.47;6295272;28;20083;-65
2023/06/22 09:09:18;;;;;;;7.57;2.58;;;;;;;32.43;14.41;96433.19;6272137;28;20045;-65
2023/06/22 09:12:22;;;;;;;1.70;1.50;;;;;;;34.34;12.59;96446.97;6269924;28;20139;-63
2023/06/22 09:15:26;;;;;;;1.50;1.35;;;;;;;34.17;12.98;96436.19;6261412;28;20045;-63
2023/06/22 09:18:27;;;;;;;2.35;1.23;;;;;;;33.30;13.34;96437.16;6256086;28;20037;-66
2023/06/22 09:21:32;;;;;;;1.30;1.20;;;;;;;32.28;14.20;96436.50;6270011;28;20430;-64
2023/06/22 09:24:36;;;;;;;1.27;1.13;;;;;;;31.36;14.84;96434.00;6268236;28;20033;-64
2023/06/22 09:27:37;;;;;;;1.85;1.50;;;;;;;30.07;16.04;96432.19;6270399;28;21304;-64
2023/06/22 09:30:44;;;;;;;1.60;1.30;;;;;;;28.34;17.35;96434.28;6270211;28;20720;-64
2023/06/22 09:33:47;;;;;;;1.90;1.52;;;;;;;26.56;18.81;96421.50;6268943;28;20052;-64
2023/06/22 09:36:51;;;;;;;1.88;1.35;;;;;;;25.42;19.81;96409.84;6268883;28;20056;-64
2023/06/22 09:39:57;;;;;;;1.90;1.25;;;;;;;24.54;20.61;96423.16;6268982;28;20429;-64
2023/06/22 09:42:59;;;;;;;2.55;1.40;;;;;;;23.05;21.85;96416.81;6244912;28;20052;-64
2023/06/22 09:46:06;;;;;;;2.25;1.95;;;;;;;22.13;22.77;96417.16;6270495;28;20482;-64
2023/06/22 09:49:11;;;;;;;2.30;1.65;;;;;;;21.85;23.42;96417.75;6267165;28;20044;-65
2023/06/22 09:52:16;;;;;;;2.83;1.70;;;;;;;21.75;23.41;96414.50;6262120;28;20037;-64
2023/06/22 09:55:17;;;;;;;1.83;1.60;;;;;;;21.64;23.77;96415.75;6269280;28;20179;-66
2023/06/22 09:58:21;;;;;;;2.00;1.80;;;;;;;21.39;24.28;96420.47;6265088;28;20053;-64
2023/06/22 10:01:27;;;;;;;2.47;1.80;;;;;;;21.49;24.15;96410.38;6248297;28;20041;-64
2023/06/22 10:04:36;;;;;;;2.08;1.35;;;;;;;22.12;23.43;96416.34;6257869;28;20057;-64
2023/06/22 10:07:43;;;;;;;3.35;1.50;;;;;;;23.72;22.07;96413.81;6266875;28;20048;-65
2023/06/22 10:10:47;;;;;;;1.60;1.45;;;;;;;26.76;19.47;96411.50;6288404;28;20048;-64
2023/06/22 10:13:48;;;;;;;2.08;1.33;;;;;;;29.65;17.02;96418.63;6257834;28;20410;-65
2023/06/22 10:16:56;;;;;;;1.77;1.58;;;;;;;31.13;15.54;96424.84;6263536;28;20041;-66
2023/06/22 10:20:22;;;;;;;1.73;1.27;;;;;;;30.15;16.15;96432.66;6266796;28;20409;-66
2023/06/22 10:23:23;;;;;;;2.60;1.40;;;;;;;27.82;17.51;96420.13;6269552;28;20407;-65
2023/06/22 10:26:25;;;;;;;2.00;1.50;;;;;;;26.18;19.31;96430.22;6269288;28;20059;-65
2023/06/22 10:29:27;;;;;;;1.77;1.30;;;;;;;25.02;20.18;96425.84;6293687;28;20100;-63
2023/06/22 10:32:28;;;;;;;3.47;1.92;;;;;;;24.43;21.24;96429.06;6283756;28;20038;-64
2023/06/22 10:35:32;;;;;;;1.88;1.35;;;;;;;24.03;21.34;96423.34;6244395;28;20053;-62
2023/06/22 10:38:33;;;;;;;1.60;1.50;;;;;;;23.65;21.93;96415.56;6244562;28;20132;-65
2023/06/22 10:41:37;;;;;;;3.97;1.70;;;;;;;23.47;22.31;96420.59;6258223;28;20029;-65
2023/06/22 10:44:43;;;;;;;3.75;1.98;;;;;;;23.42;22.40;96418.47;6287315;28;20512;-65
2023/06/22 10:47:46;;;;;;;2.75;1.60;;;;;;;23.35;22.49;96412.19;6286525;28;20032;-65
2023/06/22 10:50:50;;;;;;;1.98;1.60;;;;;;;23.89;22.04;96410.84;6265261;28;20045;-64
2023/06/22 10:53:51;;;;;;;1.95;1.40;;;;;;;26.09;19.55;96410.75;6264632;28;20048;-63
2023/06/22 10:56:55;;;;;;;2.50;2.00;;;;;;;27.69;18.39;96415.63;6248265;28;20432;-63
2023/06/22 11:00:01;;;;;;;2.10;1.50;;;;;;;28.60;17.77;96415.09;6263503;28;20135;-63
2023/06/22 11:03:08;;;;;;;2.60;1.80;;;;;;;27.84;18.02;96418.88;6265501;28;20568;-65
2023/06/22 11:06:09;;;;;;;3.17;1.80;;;;;;;26.63;19.45;96414.22;6267038;28;20056;-64
2023/06/22 11:09:11;;;;;;;4.43;2.50;;;;;;;25.80;20.06;96411.97;6263561;28;20044;-64
2023/06/22 11:12:12;;;;;;;1.55;1.40;;;;;;;25.02;20.67;96398.91;6263280;28;20032;-64
2023/06/22 11:15:18;;;;;;;4.50;1.75;;;;;;;24.14;21.24;96404.00;6262936;28;20502;-64
2023/06/22 11:18:23;;;;;;;2.53;1.85;;;;;;;23.49;21.94;96407.78;6267476;28;20179;-64
2023/06/22 11:21:24;;;;;;;2.08;1.42;;;;;;;23.18;21.96;96406.22;6266264;28;20029;-64
2023/06/22 11:24:25;;;;;;;1.27;1.08;;;;;;;23.38;22.03;96410.97;6266865;28;20441;-65
2023/06/22 11:27:26;;;;;;;1.75;1.10;;;;;;;24.73;20.84;96410.00;6266370;28;20040;-64
2023/06/22 11:30:30;;;;;;;2.05;1.30;;;;;;;26.22;18.94;96404.53;6266276;28;20044;-64
2023/06/22 11:33:32;;;;;;;2.20;1.65;;;;;;;27.29;18.29;96411.28;6262828;28;20040;-65
2023/06/22 11:36:35;;;;;;;1.33;1.20;;;;;;;28.11;17.69;96414.09;6267465;28;20053;-65
2023/06/22 11:39:42;;;;;;;2.90;1.35;;;;;;;28.88;17.21;96403.75;6261229;28;20045;-64
2023/06/22 11:42:45;;;;;;;1.63;1.30;;;;;;;28.86;17.24;96410.44;6260185;28;20037;-64
2023/06/22 11:45:50;;;;;;;2.40;1.63;;;;;;;27.50;18.25;96406.59;6269816;28;20457;-64
2023/06/22 11:48:54;;;;;;;2.25;1.50;;;;;;;26.38;19.61;96404.09;6268245;28;20048;-64
2023/06/22 11:51:58;;;;;;;2.10;1.23;;;;;;;26.03;20.27;96394.59;6281083;28;20036;-64
2023/06/22 11:55:03;;;;;;;1.52;1.23;;;;;;;25.95;19.93;96399.13;6292964;28;20127;-63
2023/06/22 11:58:08;;;;;;;2.58;1.30;;;;;;;25.77;19.80;96390.81;6271860;28;20061;-65
2023/06/22 12:01:14;;;;;;;2.92;1.40;;;;;;;25.70;20.48;96385.44;6243456;28;20037;-75
2023/06/22 12:04:16;;;;;;;2.13;1.50;;;;;;;26.19;19.81;96389.59;6266204;28;20048;-64
2023/06/22 12:07:22;;;;;;;1.73;1.40;;;;;;;27.13;19.16;96390.16;6267938;28;20045;-63
2023/06/22 12:10:28;;;;;;;8.60;1.77;;;;;;;28.29;18.59;96398.94;6261774;28;20410;-63
2023/06/22 12:13:29;;;;;;;1.50;1.08;;;;;;;28.95;17.87;96392.00;6264744;28;20048;-64
2023/06/22 12:16:30;;;;;;;1.60;1.10;;;;;;;29.02;17.25;96398.16;6265748;28;20083;-63
2023/06/22 12:19:36;;;;;;;1.20;1.00;;;;;;;28.21;17.88;96403.56;6267348;28;20037;-64
2023/06/22 12:22:41;;;;;;;1.35;1.10;;;;;;;26.47;19.05;96402.00;6267504;28;20041;-64
2023/06/22 12:25:45;;;;;;;3.57;1.30;;;;;;;24.80;20.21;96400.94;6264269;28;20430;-64
2023/06/22 12:28:49;;;;;;;1.42;0.98;;;;;;;23.64;21.36;96397.81;6263172;28;20045;-64
2023/06/22 12:31:55;;;;;;;1.15;0.93;;;;;;;22.87;22.39;96398.41;6251825;28;20719;-64
2023/06/22 12:34:57;;;;;;;1.35;1.08;;;;;;;22.58;22.92;96385.88;6247009;28;20370;-66
2023/06/22 12:37:58;;;;;;;1.52;1.00;;;;;;;22.50;23.32;96396.69;6248471;28;20049;-64
2023/06/22 12:41:00;;;;;;;2.75;1.40;;;;;;;22.31;23.71;96404.28;6244108;28;20172;-65
2023/06/22 12:44:02;;;;;;;1.05;0.93;;;;;;;22.16;24.10;96390.00;6257662;28;20036;-64
2023/06/22 12:47:09;;;;;;;2.63;1.40;;;;;;;21.94;24.38;96397.94;6260646;28;20037;-63
2023/06/22 12:50:13;;;;;;;1.98;1.23;;;;;;;21.72;24.69;96391.59;6258807;28;20048;-65
2023/06/22 12:53:17;;;;;;;1.83;1.30;;;;;;;21.45;25.12;96390.31;6261757;28;20191;-64
2023/06/22 12:56:20;;;;;;;2.90;1.20;;;;;;;21.10;26.04;96397.06;6267092;28;20418;-63
2023/06/22 12:59:24;;;;;;;2.70;1.52;;;;;;;20.72;26.29;96396.09;6275245;28;20044;-63
2023/06/22 13:02:25;;;;;;;2.30;1.60;;;;;;;20.63;26.18;96393.44;6265654;28;20532;-63
2023/06/22 13:05:27;;;;;;;1.35;1.25;;;;;;;20.75;26.25;96395.72;6271203;28;20045;-63
2023/06/22 13:08:32;;;;;;;3.22;1.65;;;;;;;20.72;26.42;96398.75;6268915;28;20034;-64
2023/06/22 13:11:34;;;;;;;3.95;1.85;;;;;;;20.46;26.25;96375.78;6266799;28;20052;-64
2023/06/22 13:14:35;;;;;;;2.72;1.40;;;;;;;20.30;26.64;96397.25;6259511;28;20658;-64
2023/06/22 13:17:39;;;;;;;2.70;1.20;;;;;;;20.03;27.25;96399.28;6261903;28;20435;-64
2023/06/22 13:20:45;;;;;;;2.30;1.05;;;;;;;19.79;27.98;96400.19;6265369;28;20044;-63
2023/06/22 13:23:48;;;;;;;2.78;1.40;;;;;;;19.71;27.61;96403.69;6267921;28;20045;-64
2023/06/22 13:26:52;;;;;;;;;;;;;;;20.12;27.13;96406.28;6267026;28;20041;-63
2023/06/22 13:29:56;;;;;;;1.70;1.03;;;;;;;20.29;27.15;96395.56;6268026;28;19921;-63
2023/06/22 13:33:01;;;;;;;2.25;1.50;;;;;;;20.06;27.70;96409.63;6256438;28;20048;-63
2023/06/22 13:36:06;;;;;;;2.50;1.33;;;;;;;19.69;28.58;96411.00;6295213;28;20163;-63
2023/06/22 13:39:10;;;;;;;2.28;1.27;;;;;;;19.51;28.79;96413.81;6265171;28;20743;-63
2023/06/22 13:42:16;;;;;;;2.00;1.40;;;;;;;19.27;28.67;96413.78;6267119;28;20037;-63
2023/06/22 13:45:23;;;;;;;2.25;1.23;;;;;;;19.05;29.35;96401.91;6267025;28;20040;-64
2023/06/22 13:48:28;;;;;;;1.55;1.30;;;;;;;18.93;29.97;96413.91;6270299;28;20079;-62
2023/06/22 13:51:34;;;;;;;1.15;0.80;;;;;;;18.57;30.11;96411.41;6277554;28;20422;-63
2023/06/22 13:54:36;;;;;;;1.98;1.23;;;;;;;18.38;30.51;96405.34;6255323;28;20450;-63
2023/06/22 13:57:37;;;;;;;2.40;1.38;;;;;;;18.44;30.56;96419.84;6249044;28;20045;-63
2023/06/22 14:00:39;;;;;;;2.30;1.48;;;;;;;18.48;30.73;96415.88;6264585;28;20120;-64
2023/06/22 14:03:45;;;;;;;2.78;1.20;;;;;;;18.40;30.75;96406.03;6260260;28;20048;-64
2023/06/22 14:06:50;;;;;;;1.98;1.10;;;;;;;18.40;31.06;96419.34;6272847;28;20520;-64
2023/06/22 14:09:53;;;;;;;1.83;1.45;;;;;;;18.36;31.47;96417.97;6293526;28;20044;-64
2023/06/22 14:12:55;;;;;;;;;;;;;;;18.51;31.70;96420.03;6294428;28;20414;-63
2023/06/22 14:15:58;;;;;;;3.25;1.23;;;;;;;18.30;31.50;96417.78;6270500;28;19921;-64
2023/06/22 14:19:05;;;;;;;1.15;0.90;;;;;;;18.07;31.93;96417.50;6269764;28;20041;-64
2023/06/22 14:22:09;;;;;;;4.22;1.02;;;;;;;17.92;32.41;96415.41;6258958;28;20034;-63
2023/06/22 14:25:15;;;;;;;1.48;1.17;;;;;;;17.87;32.73;96425.69;6259738;28;20052;-63
2023/06/22 14:28:16;;;;;;;3.58;1.20;;;;;;;17.88;32.82;96414.03;6264789;28;20057;-63
2023/06/22 14:31:19;;;;;;;4.10;1.50;;;;;;;17.79;33.17;96414.97;6249334;28;20422;-64
2023/06/22 14:34:22;;;;;;;2.05;0.77;;;;;;;17.61;33.55;96419.47;6261440;28;20498;-63